Time;durP1;ratioP1;P1;durP2;ratioP2;P2;SDS_P1;SDS_P2;PMS_P1;PMS_P2;Temp;Humidity;BMP_temperature;BMP_pressure;BME280_temperature;BME280_humidity;BME280_pressure;Samples;Min_cycle;Max_cycle;Signal;HPM_P1;HPM_P2
2022/01/23 00:00:19;;;;;;;12.35;5.57;;;5.50;99.90;;;;;;5086830;28;20178;-68
2022/01/23 00:02:50;;;;;;;6.60;4.43;;;5.50;99.90;;;;;;5078911;28;20052;-67
2022/01/23 00:05:18;;;;;;;10.90;5.50;;;5.50;99.90;;;;;;5074874;28;20056;-65
2022/01/23 00:07:45;;;;;;;7.32;4.97;;;5.50;99.90;;;;;;5083134;28;20045;-67
2022/01/23 00:10:12;;;;;;;12.05;5.70;;;5.50;99.90;;;;;;5073152;28;20044;-66
2022/01/23 00:12:47;;;;;;;11.95;5.15;;;5.50;99.90;;;;;;5073222;28;20045;-68
2022/01/23 00:17:57;;;;;;;12.13;4.13;;;5.50;99.90;;;;;;5092792;28;20044;-67
2022/01/23 00:20:23;;;;;;;10.10;5.03;;;5.50;99.90;;;;;;5094241;28;20052;-66
2022/01/23 00:22:57;;;;;;;9.05;4.32;;;5.50;99.90;;;;;;5093093;28;20044;-66
2022/01/23 00:30:57;;;;;;;8.63;4.45;;;5.50;99.90;;;;;;5090940;28;20076;-66
2022/01/23 00:33:23;;;;;;;10.43;4.53;;;5.60;99.90;;;;;;5079083;28;20052;-66
2022/01/23 00:35:50;;;;;;;11.23;5.65;;;5.60;99.90;;;;;;5073130;28;20041;-66
2022/01/23 00:38:16;;;;;;;8.60;4.32;;;5.60;99.90;;;;;;5073735;28;20048;-66
2022/01/23 00:40:43;;;;;;;6.90;4.68;;;5.60;99.90;;;;;;5072000;28;20059;-68
2022/01/23 00:43:44;;;;;;;10.65;5.20;;;5.50;99.90;;;;;;5074085;28;20049;-65
2022/01/23 00:51:33;;;;;;;6.88;4.80;;;5.50;99.90;;;;;;5072266;28;20506;-67
2022/01/23 00:54:00;;;;;;;7.22;4.47;;;5.60;99.90;;;;;;5083014;28;20141;-65
2022/01/23 00:56:26;;;;;;;10.40;5.10;;;5.50;99.90;;;;;;5080156;28;20064;-67
2022/01/23 00:58:52;;;;;;;10.77;5.07;;;5.50;99.90;;;;;;5073565;28;20082;-66
2022/01/23 01:01:19;;;;;;;10.45;5.07;;;5.50;99.90;;;;;;5071753;28;20125;-67
2022/01/23 01:03:44;;;;;;;9.13;4.63;;;5.50;99.90;;;;;;5084517;28;20381;-66
2022/01/23 01:06:10;;;;;;;10.38;4.10;;;5.50;99.90;;;;;;5090112;28;20090;-67
2022/01/23 01:08:36;;;;;;;10.45;4.38;;;5.50;99.90;;;;;;5072455;28;20411;-67
2022/01/23 01:13:53;;;;;;;12.00;4.50;;;5.40;99.90;;;;;;5073281;28;20053;-67
2022/01/23 01:16:41;;;;;;;7.22;4.22;;;5.60;99.90;;;;;;5073756;28;20075;-67
2022/01/23 01:31:06;;;;;;;9.73;4.60;;;5.40;99.90;;;;;;5072948;28;20408;-67
2022/01/23 01:35:44;;;;;;;9.10;4.90;;;5.40;99.90;;;;;;5073668;28;20045;-67
2022/01/23 01:38:09;;;;;;;9.55;4.95;;;5.40;99.90;;;;;;5072920;28;20049;-68
2022/01/23 01:40:36;;;;;;;10.30;4.97;;;5.20;99.90;;;;;;5076585;28;20048;-66
2022/01/23 01:43:03;;;;;;;11.98;5.20;;;5.50;99.90;;;;;;5092884;28;20101;-67
2022/01/23 01:45:31;;;;;;;9.32;5.90;;;5.40;99.90;;;;;;5090028;28;20091;-67
2022/01/23 01:48:00;;;;;;;11.32;5.05;;;5.40;99.90;;;;;;5075780;28;20056;-67
2022/01/23 01:50:27;;;;;;;10.65;5.28;;;5.50;99.90;;;;;;5088631;28;20048;-67
2022/01/23 01:52:53;;;;;;;13.88;5.25;;;5.50;99.90;;;;;;5091274;28;20151;-66
2022/01/23 01:55:26;;;;;;;10.90;5.47;;;5.40;99.90;;;;;;5087322;28;20087;-67
2022/01/23 01:57:56;;;;;;;8.68;4.88;;;5.50;99.90;;;;;;5075453;28;20066;-66
2022/01/23 02:00:39;;;;;;;12.55;5.43;;;5.50;99.90;;;;;;5076051;28;20044;-66
2022/01/23 02:08:25;;;;;;;15.68;5.38;;;5.60;99.90;;;;;;5072342;28;20497;-66
2022/01/23 02:10:56;;;;;;;10.70;5.70;;;5.50;99.90;;;;;;5092321;28;20469;-66
2022/01/23 02:13:31;;;;;;;14.67;5.73;;;5.30;99.90;;;;;;5073027;28;20048;-66
2022/01/23 02:24:11;;;;;;;12.88;5.70;;;5.60;99.90;;;;;;5096688;28;20142;-66
2022/01/23 02:56:50;;;;;;;14.10;6.00;;;5.60;99.90;;;;;;5102490;28;20591;-66
2022/01/23 02:59:37;;;;;;;15.65;5.72;;;5.60;99.90;;;;;;5087994;28;20385;-67
2022/01/23 03:04:36;;;;;;;11.27;5.78;;;5.50;99.90;;;;;;5095605;28;20503;-68
2022/01/23 03:07:38;;;;;;;13.90;6.43;;;5.60;99.90;;;;;;5094858;28;20081;-67
2022/01/23 03:13:24;;;;;;;13.95;5.93;;;5.60;99.90;;;;;;5095924;28;20048;-66
2022/01/23 03:15:58;;;;;;;9.55;6.00;;;5.50;99.90;;;;;;5092516;28;20357;-67
2022/01/23 03:26:33;;;;;;;10.50;6.03;;;5.40;99.90;;;;;;5105546;28;20409;-66
2022/01/23 03:29:18;;;;;;;13.32;5.50;;;5.50;99.90;;;;;;5095431;28;20113;-67
2022/01/23 03:34:16;;;;;;;10.20;6.07;;;5.50;99.90;;;;;;5093735;28;20059;-65
2022/01/23 03:36:42;;;;;;;13.25;6.53;;;5.50;99.90;;;;;;5093576;28;20715;-69
2022/01/23 03:39:08;;;;;;;13.07;6.35;;;5.40;99.90;;;;;;5094731;28;20048;-65
2022/01/23 03:41:40;;;;;;;15.48;6.70;;;5.50;99.90;;;;;;5078734;28;20127;-68
2022/01/23 03:44:08;;;;;;;13.60;6.35;;;5.50;99.90;;;;;;5074734;28;20631;-67
2022/01/23 03:49:31;;;;;;;12.77;6.50;;;5.50;99.90;;;;;;5074955;28;20040;-69
2022/01/23 03:52:09;;;;;;;14.00;6.40;;;5.50;99.90;;;;;;5091855;28;20060;-65
2022/01/23 03:54:37;;;;;;;12.43;7.10;;;5.40;99.90;;;;;;5094799;28;20088;-66
2022/01/23 03:57:04;;;;;;;11.93;7.72;;;5.40;99.90;;;;;;5094332;28;20517;-66
2022/01/23 03:59:31;;;;;;;13.77;7.32;;;5.60;99.90;;;;;;5093624;28;20192;-66
2022/01/23 04:01:57;;;;;;;10.88;6.95;;;5.50;99.90;;;;;;5092901;28;20064;-66
2022/01/23 04:04:38;;;;;;;11.60;7.10;;;5.50;99.90;;;;;;5092317;28;20048;-65
2022/01/23 04:07:15;;;;;;;13.70;6.90;;;5.60;99.90;;;;;;5082119;28;20045;-65
2022/01/23 04:09:42;;;;;;;11.35;6.63;;;5.50;99.90;;;;;;5074382;28;20043;-66
2022/01/23 04:12:12;;;;;;;13.63;7.05;;;5.50;99.90;;;;;;5095928;28;20097;-67
2022/01/23 04:14:45;;;;;;;12.75;6.90;;;5.60;99.90;;;;;;5116777;27;20094;-66
2022/01/23 04:18:11;;;;;;;11.90;6.70;;;5.40;99.90;;;;;;5079012;28;20121;-67
2022/01/23 04:34:20;;;;;;;15.13;7.00;;;5.50;99.90;;;;;;5094463;28;20143;-66
2022/01/23 05:01:15;;;;;;;16.73;7.30;;;5.40;99.90;;;;;;5084474;28;20044;-66
2022/01/23 05:04:07;;;;;;;11.10;6.72;;;5.40;99.90;;;;;;5073004;28;20052;-67
2022/01/23 05:06:40;;;;;;;11.27;5.60;;;5.40;99.90;;;;;;5085999;28;20049;-65
2022/01/23 05:09:07;;;;;;;14.23;7.38;;;5.40;99.90;;;;;;5083189;28;20120;-67
2022/01/23 05:11:32;;;;;;;14.15;6.72;;;5.30;99.90;;;;;;5084087;28;20086;-66
2022/01/23 05:14:01;;;;;;;13.38;7.72;;;5.40;99.90;;;;;;5111901;27;20480;-68
2022/01/23 05:16:26;;;;;;;12.70;6.88;;;5.40;99.90;;;;;;5085340;28;20044;-66
2022/01/23 05:18:53;;;;;;;13.23;7.40;;;5.40;99.90;;;;;;5072168;28;20521;-67
2022/01/23 05:24:04;;;;;;;16.63;7.20;;;5.40;99.90;;;;;;5087812;28;20484;-65
2022/01/23 05:26:31;;;;;;;13.75;7.38;;;5.40;99.90;;;;;;5091639;28;20052;-67
2022/01/23 05:28:57;;;;;;;15.70;7.38;;;5.40;99.90;;;;;;5092876;28;20060;-68
2022/01/23 05:31:23;;;;;;;12.20;6.75;;;5.30;99.90;;;;;;5088331;28;20051;-67
2022/01/23 05:33:48;;;;;;;14.23;7.40;;;5.40;99.90;;;;;;5088843;28;20052;-66
2022/01/23 05:36:14;;;;;;;16.52;7.60;;;5.40;99.90;;;;;;5087161;28;20189;-65
2022/01/23 05:38:39;;;;;;;12.80;6.55;;;5.50;99.90;;;;;;5091853;28;20044;-67
2022/01/23 05:41:05;;;;;;;12.30;7.22;;;5.40;99.90;;;;;;5080175;28;20487;-66
2022/01/23 05:43:31;;;;;;;14.32;7.07;;;5.40;99.90;;;;;;5071618;28;20075;-65
2022/01/23 05:45:56;;;;;;;16.20;6.93;;;5.40;99.90;;;;;;5084013;28;20052;-67
2022/01/23 05:48:22;;;;;;;10.75;6.68;;;5.40;99.90;;;;;;5105573;28;20036;-67
2022/01/23 05:50:48;;;;;;;12.75;6.63;;;5.40;99.90;;;;;;5114196;27;20404;-67
2022/01/23 05:53:14;;;;;;;16.00;6.65;;;5.30;99.90;;;;;;5091930;28;20059;-66
2022/01/23 05:55:39;;;;;;;15.57;7.15;;;5.40;99.90;;;;;;5066620;28;20059;-66
2022/01/23 05:58:05;;;;;;;12.80;6.88;;;5.30;99.90;;;;;;5071089;28;20131;-67
2022/01/23 06:00:31;;;;;;;13.50;6.97;;;5.30;99.90;;;;;;5074043;28;20052;-67
2022/01/23 06:02:56;;;;;;;13.48;6.10;;;5.40;99.90;;;;;;5087127;28;20517;-66
2022/01/23 06:05:22;;;;;;;12.48;6.35;;;5.30;99.90;;;;;;5091117;28;20044;-69
2022/01/23 06:07:50;;;;;;;14.35;6.45;;;5.40;99.90;;;;;;5089382;28;20052;-67
2022/01/23 06:10:22;;;;;;;12.52;6.55;;;5.30;99.90;;;;;;5087494;28;20080;-67
2022/01/23 06:12:48;;;;;;;14.45;7.72;;;5.30;99.90;;;;;;5075743;28;20105;-65
2022/01/23 06:15:15;;;;;;;10.85;6.13;;;5.30;99.90;;;;;;5072590;28;20477;-68
2022/01/23 06:17:41;;;;;;;12.50;6.78;;;5.50;99.90;;;;;;5103949;28;20050;-67
2022/01/23 06:20:09;;;;;;;13.85;6.93;;;5.40;99.90;;;;;;5091936;28;20410;-68
2022/01/23 06:22:34;;;;;;;9.95;6.32;;;5.30;99.90;;;;;;5090729;28;20040;-66
2022/01/23 06:25:00;;;;;;;11.27;6.55;;;5.30;99.90;;;;;;5074465;28;20051;-68
2022/01/23 06:27:28;;;;;;;12.35;6.57;;;5.40;99.90;;;;;;5091259;28;20048;-68
2022/01/23 06:29:53;;;;;;;12.63;6.10;;;5.30;99.90;;;;;;5092244;28;20377;-65
2022/01/23 06:32:19;;;;;;;12.73;6.43;;;5.30;99.90;;;;;;5090998;28;20055;-67
2022/01/23 06:34:46;;;;;;;10.65;6.05;;;5.30;99.90;;;;;;5091752;28;20144;-67
2022/01/23 06:37:12;;;;;;;12.57;5.78;;;5.30;99.90;;;;;;5091428;28;20096;-67
2022/01/23 06:39:38;;;;;;;10.45;6.32;;;5.30;99.90;;;;;;5091121;28;20492;-67
2022/01/23 06:42:04;;;;;;;11.05;5.47;;;5.30;99.90;;;;;;5092610;28;20060;-67
2022/01/23 06:44:30;;;;;;;7.85;5.03;;;5.30;99.90;;;;;;5085410;28;20471;-67
2022/01/23 06:46:56;;;;;;;11.70;5.82;;;5.30;99.90;;;;;;5090581;28;20083;-68
2022/01/23 06:49:22;;;;;;;9.93;5.40;;;5.20;99.90;;;;;;5090649;28;20538;-66
2022/01/23 06:51:49;;;;;;;10.05;6.00;;;5.30;99.90;;;;;;5090634;28;20055;-66
2022/01/23 06:54:15;;;;;;;10.60;5.80;;;5.30;99.90;;;;;;5090937;28;20066;-68
2022/01/23 06:56:41;;;;;;;11.00;5.43;;;5.30;99.90;;;;;;5091039;28;20123;-64
2022/01/23 06:59:06;;;;;;;13.05;5.68;;;5.30;99.90;;;;;;5090909;28;20052;-66
2022/01/23 07:01:32;;;;;;;10.35;5.60;;;5.30;99.90;;;;;;5075378;28;20058;-67
2022/01/23 07:03:58;;;;;;;9.63;5.10;;;5.30;99.90;;;;;;5083197;28;20095;-67
2022/01/23 07:06:24;;;;;;;11.68;5.53;;;5.30;99.90;;;;;;5108540;28;20192;-67
2022/01/23 07:08:50;;;;;;;9.80;5.10;;;5.30;99.90;;;;;;5091789;28;20048;-66
2022/01/23 07:11:15;;;;;;;7.95;5.18;;;5.30;99.90;;;;;;5068747;28;20102;-67
2022/01/23 07:13:41;;;;;;;7.45;4.90;;;5.30;99.90;;;;;;5089144;28;20124;-65
2022/01/23 07:16:07;;;;;;;10.13;5.75;;;5.30;99.90;;;;;;5083928;28;20064;-66
2022/01/23 07:18:33;;;;;;;8.82;5.00;;;5.30;99.90;;;;;;5083359;28;20051;-67
2022/01/23 07:20:58;;;;;;;8.40;4.65;;;5.30;99.90;;;;;;5073964;28;20055;-68
2022/01/23 07:23:24;;;;;;;11.48;5.40;;;5.30;99.90;;;;;;5079188;28;20044;-67
2022/01/23 07:25:51;;;;;;;8.15;5.28;;;5.30;99.90;;;;;;5092764;28;20055;-66
2022/01/23 07:28:20;;;;;;;9.57;5.22;;;5.30;99.90;;;;;;5096153;28;20135;-66
2022/01/23 07:30:56;;;;;;;8.23;5.32;;;5.30;99.90;;;;;;5093787;28;20048;-67
2022/01/23 07:33:21;;;;;;;9.27;5.13;;;5.30;99.90;;;;;;5085194;28;20499;-67
2022/01/23 07:35:48;;;;;;;8.98;4.72;;;5.30;99.90;;;;;;5090850;28;20063;-67
2022/01/23 07:38:17;;;;;;;7.45;4.88;;;5.20;99.90;;;;;;5075561;28;20055;-66
2022/01/23 07:40:45;;;;;;;11.10;5.00;;;5.30;99.90;;;;;;5090498;28;20052;-67
2022/01/23 07:43:11;;;;;;;9.10;5.45;;;5.30;99.90;;;;;;5093042;28;20067;-66
2022/01/23 07:45:38;;;;;;;11.02;4.97;;;5.20;99.90;;;;;;5093105;28;20097;-68
2022/01/23 07:48:04;;;;;;;10.48;5.50;;;5.30;99.90;;;;;;5094863;28;20062;-66
2022/01/23 07:50:30;;;;;;;9.80;5.13;;;5.30;99.90;;;;;;5093814;28;20098;-66
2022/01/23 07:52:55;;;;;;;7.80;5.55;;;5.20;99.90;;;;;;5094155;28;20087;-66
2022/01/23 07:55:21;;;;;;;8.10;5.28;;;5.30;99.90;;;;;;5092946;28;20127;-66
2022/01/23 07:57:46;;;;;;;10.02;5.63;;;5.30;99.90;;;;;;5093888;28;20086;-63
2022/01/23 08:00:13;;;;;;;8.20;5.10;;;5.20;99.90;;;;;;5093931;28;20051;-66
2022/01/23 08:02:39;;;;;;;9.32;5.15;;;5.30;99.90;;;;;;5092539;28;20484;-66
2022/01/23 08:05:05;;;;;;;9.60;4.90;;;5.20;99.90;;;;;;5093723;28;20123;-66
2022/01/23 08:07:31;;;;;;;14.35;5.82;;;5.20;99.90;;;;;;5094610;28;20408;-67
2022/01/23 08:10:03;;;;;;;8.70;5.45;;;5.20;99.90;;;;;;5093784;28;20060;-68
2022/01/23 08:12:30;;;;;;;7.15;5.22;;;5.20;99.90;;;;;;5094442;28;20115;-67
2022/01/23 08:14:57;;;;;;;9.57;5.57;;;5.20;99.90;;;;;;5092918;28;20052;-67
2022/01/23 08:17:25;;;;;;;9.68;5.82;;;5.20;99.90;;;;;;5092500;28;20132;-67
2022/01/23 08:19:52;;;;;;;13.02;5.68;;;5.20;99.90;;;;;;5093248;28;20513;-66
2022/01/23 08:22:19;;;;;;;10.15;5.38;;;5.20;99.90;;;;;;5093360;28;20098;-66
2022/01/23 08:24:45;;;;;;;10.40;5.57;;;5.20;99.90;;;;;;5093293;28;20232;-67
2022/01/23 08:27:11;;;;;;;11.82;5.78;;;5.20;99.90;;;;;;5092746;28;20129;-67
2022/01/23 08:29:36;;;;;;;10.20;5.95;;;5.20;99.90;;;;;;5093538;28;20052;-68
2022/01/23 08:32:02;;;;;;;12.55;6.82;;;5.20;99.90;;;;;;5094017;28;20062;-67
2022/01/23 08:34:27;;;;;;;12.40;6.10;;;5.20;99.90;;;;;;5093109;28;20135;-68
2022/01/23 08:36:55;;;;;;;10.48;5.90;;;5.30;99.90;;;;;;5090940;28;20059;-66
2022/01/23 08:39:24;;;;;;;9.55;5.78;;;5.30;99.90;;;;;;5092701;28;20079;-66
2022/01/23 08:41:50;;;;;;;10.23;5.70;;;5.30;99.90;;;;;;5075911;28;20044;-67
2022/01/23 08:44:17;;;;;;;9.23;6.22;;;5.30;99.90;;;;;;5092855;28;20047;-68
2022/01/23 08:46:43;;;;;;;10.60;6.28;;;5.40;99.90;;;;;;5091612;28;20079;-66
2022/01/23 08:49:09;;;;;;;9.80;6.22;;;5.50;99.90;;;;;;5074770;28;20429;-66
2022/01/23 08:51:35;;;;;;;11.55;6.20;;;5.50;99.90;;;;;;5094121;28;20052;-67
2022/01/23 08:54:02;;;;;;;12.52;5.93;;;5.50;99.90;;;;;;5093038;28;20075;-67
2022/01/23 08:56:28;;;;;;;11.27;5.88;;;5.50;99.90;;;;;;5081259;28;20052;-66
2022/01/23 08:58:54;;;;;;;10.07;5.70;;;5.60;99.90;;;;;;5088891;28;20040;-66
2022/01/23 09:01:20;;;;;;;9.98;5.85;;;;;;;;;;5088101;28;20059;-67
2022/01/23 09:03:46;;;;;;;9.85;5.78;;;;;;;;;;5090870;28;20060;-69
2022/01/23 09:06:12;;;;;;;8.75;6.10;;;;;;;;;;5093762;28;20512;-64
2022/01/23 09:08:40;;;;;;;13.23;5.75;;;;;;;;;;5089695;28;20083;-68
2022/01/23 09:11:10;;;;;;;8.75;5.53;;;;;;;;;;5089065;28;20067;-66
2022/01/23 09:13:53;;;;;;;10.40;6.68;;;5.80;99.90;;;;;;5090454;28;20105;-68
2022/01/23 09:16:19;;;;;;;;;;;6.00;99.90;;;;;;5092148;28;20075;-67
2022/01/23 09:18:44;;;;;;;11.85;6.38;;;5.90;99.90;;;;;;5075574;28;19969;-68
2022/01/23 09:21:10;;;;;;;11.65;6.22;;;5.90;99.90;;;;;;5088142;28;20058;-67
2022/01/23 09:23:35;;;;;;;11.73;6.55;;;5.90;99.90;;;;;;5082570;28;20054;-67
2022/01/23 09:26:08;;;;;;;13.73;6.30;;;5.90;99.90;;;;;;5084261;28;20052;-71
2022/01/23 09:28:35;;;;;;;14.65;6.53;;;6.00;99.90;;;;;;5072979;28;20079;-66
2022/01/23 09:31:01;;;;;;;9.95;6.30;;;6.00;99.90;;;;;;5058964;28;20055;-67
2022/01/23 09:33:28;;;;;;;9.90;5.20;;;6.00;99.90;;;;;;5092442;28;20353;-68
2022/01/23 09:35:54;;;;;;;11.20;6.40;;;6.10;99.90;;;;;;5074648;28;20123;-69
2022/01/23 09:38:20;;;;;;;9.25;5.75;;;6.10;99.90;;;;;;5092093;28;20159;-66
2022/01/23 09:40:50;;;;;;;10.10;5.70;;;6.20;99.90;;;;;;5108345;28;20058;-68
2022/01/23 09:43:17;;;;;;;10.80;6.30;;;6.20;99.90;;;;;;5093491;28;20048;-67
2022/01/23 09:45:49;;;;;;;9.73;5.45;;;6.20;99.90;;;;;;5092729;28;20541;-67
2022/01/23 09:48:16;;;;;;;9.00;5.32;;;6.30;99.90;;;;;;5091685;28;20052;-66
2022/01/23 09:50:44;;;;;;;8.20;5.72;;;6.30;99.90;;;;;;5091743;28;20052;-68
2022/01/23 09:53:11;;;;;;;9.15;5.63;;;6.30;99.90;;;;;;5091582;28;20067;-67
2022/01/23 09:55:39;;;;;;;7.38;5.00;;;6.40;99.90;;;;;;5092274;28;20393;-68
2022/01/23 09:58:05;;;;;;;8.75;4.65;;;6.40;99.90;;;;;;5074812;28;20052;-67
2022/01/23 10:00:32;;;;;;;10.40;4.60;;;6.40;99.90;;;;;;5091463;28;20048;-68
2022/01/23 10:02:58;;;;;;;9.10;4.60;;;6.40;99.90;;;;;;5092490;28;20059;-67
2022/01/23 10:05:25;;;;;;;6.82;4.70;;;6.50;99.90;;;;;;5091365;28;20052;-69
2022/01/23 10:07:53;;;;;;;8.77;5.85;;;6.50;99.90;;;;;;5092988;28;20051;-67
2022/01/23 10:10:24;;;;;;;8.82;4.97;;;6.50;99.90;;;;;;5091497;28;20401;-67
2022/01/23 10:12:56;;;;;;;10.32;5.15;;;6.50;99.90;;;;;;5092649;28;20048;-67
2022/01/23 10:15:27;;;;;;;9.15;5.20;;;6.60;99.90;;;;;;5092782;28;20052;-69
2022/01/23 10:17:56;;;;;;;10.82;6.20;;;6.60;99.90;;;;;;5090904;28;20048;-69
2022/01/23 10:20:23;;;;;;;9.20;5.82;;;6.60;99.90;;;;;;5074811;28;20565;-68
2022/01/23 10:22:51;;;;;;;8.95;6.18;;;6.60;99.90;;;;;;5092841;28;20056;-69
2022/01/23 10:25:22;;;;;;;11.60;6.50;;;6.70;99.90;;;;;;5091695;28;20135;-67
2022/01/23 10:27:54;;;;;;;10.68;5.80;;;6.70;99.90;;;;;;5091465;28;20066;-67
2022/01/23 10:30:21;;;;;;;10.93;6.47;;;6.70;99.90;;;;;;5092807;28;20127;-68
2022/01/23 10:33:03;;;;;;;8.10;5.30;;;6.70;99.90;;;;;;5091063;28;20052;-66
2022/01/23 10:35:33;;;;;;;9.00;5.90;;;6.70;99.90;;;;;;5094553;28;20060;-66
2022/01/23 10:38:10;;;;;;;9.55;5.88;;;6.80;99.90;;;;;;5095315;28;20056;-68
2022/01/23 10:40:46;;;;;;;8.55;5.57;;;6.80;99.90;;;;;;5095870;28;20056;-67
2022/01/23 10:48:46;;;;;;;8.43;5.00;;;6.90;99.90;;;;;;5095351;28;20048;-68
2022/01/23 10:51:27;;;;;;;6.60;4.05;;;7.00;99.90;;;;;;5094939;28;20549;-68
2022/01/23 10:54:05;;;;;;;8.13;5.93;;;7.00;99.90;;;;;;5078421;28;20052;-67
2022/01/23 10:56:39;;;;;;;9.55;6.57;;;7.10;99.90;;;;;;5094270;28;20051;-67
2022/01/23 10:59:12;;;;;;;8.25;5.85;;;7.20;99.90;;;;;;5095307;28;20135;-68
2022/01/23 11:01:39;;;;;;;9.55;6.68;;;7.20;99.90;;;;;;5094095;28;20055;-68
2022/01/23 11:04:13;;;;;;;9.55;6.60;;;7.20;99.90;;;;;;5094976;28;20055;-68
2022/01/23 11:06:58;;;;;;;4.35;2.70;;;7.30;99.90;;;;;;5094425;28;20056;-66
2022/01/23 11:09:27;;;;;;;5.55;3.47;;;7.30;99.90;;;;;;5093833;28;20056;-66
2022/01/23 11:12:00;;;;;;;6.43;4.82;;;7.30;99.90;;;;;;5078493;28;20090;-69
2022/01/23 11:17:27;;;;;;;5.00;3.70;;;7.30;99.90;;;;;;5094723;28;20052;-67
2022/01/23 11:19:54;;;;;;;3.47;2.58;;;7.30;99.90;;;;;;5094688;28;20433;-70
2022/01/23 11:22:28;;;;;;;3.95;3.13;;;7.30;99.90;;;;;;5094897;28;20052;-67
2022/01/23 11:25:05;;;;;;;2.85;2.20;;;7.30;99.90;;;;;;5093958;28;20094;-67
2022/01/23 11:27:34;;;;;;;3.25;2.22;;;7.30;99.90;;;;;;5094501;28;20052;-69
2022/01/23 11:30:04;;;;;;;3.67;2.50;;;7.30;99.90;;;;;;5094509;28;20056;-67
2022/01/23 11:32:36;;;;;;;3.17;1.88;;;7.30;99.90;;;;;;5094318;28;20095;-68
2022/01/23 11:35:09;;;;;;;3.53;2.22;;;7.30;99.90;;;;;;5093870;28;21489;-67
2022/01/23 11:37:35;;;;;;;;;;;7.30;99.90;;;;;;5128540;27;20127;-67
2022/01/23 11:40:22;;;;;;;2.13;1.45;;;7.10;99.90;;;;;;5078400;28;19935;-68
2022/01/23 11:54:05;;;;;;;2.72;2.10;;;7.10;99.90;;;;;;5091223;28;20067;-68
2022/01/23 11:56:40;;;;;;;3.10;2.28;;;7.10;99.90;;;;;;5090230;28;20049;-67
2022/01/23 11:59:30;;;;;;;4.07;2.70;;;7.10;99.90;;;;;;5073816;28;20048;-68
2022/01/23 12:02:15;;;;;;;5.45;2.95;;;7.10;99.90;;;;;;5080116;28;20365;-68
2022/01/23 12:05:09;;;;;;;3.60;2.92;;;7.10;99.90;;;;;;5073615;28;20074;-67
2022/01/23 12:07:36;;;;;;;4.18;3.03;;;7.10;99.90;;;;;;5073106;28;20099;-68
2022/01/23 12:10:29;;;;;;;9.00;3.53;;;7.10;99.90;;;;;;5084702;28;20048;-68
2022/01/23 12:16:27;;;;;;;2.40;1.50;;;7.10;99.90;;;;;;5090610;28;20154;-67
2022/01/23 12:19:19;;;;;;;2.42;1.20;;;7.10;99.90;;;;;;5081656;28;20053;-68
2022/01/23 12:21:46;;;;;;;1.80;1.00;;;7.00;99.90;;;;;;5107061;28;20094;-67
2022/01/23 12:24:15;;;;;;;3.42;2.20;;;7.00;99.90;;;;;;5081741;28;20055;-68
2022/01/23 12:26:44;;;;;;;5.63;3.75;;;7.00;99.90;;;;;;5084344;28;20365;-68
2022/01/23 12:29:14;;;;;;;11.50;6.47;;;7.00;99.90;;;;;;5079265;28;20052;-67
2022/01/23 12:31:41;;;;;;;19.33;10.98;;;7.00;99.90;;;;;;5089093;28;20060;-68
2022/01/23 12:34:07;;;;;;;5.68;3.20;;;7.10;99.90;;;;;;5074068;28;20181;-66
2022/01/23 12:36:37;;;;;;;2.00;1.50;;;7.10;99.90;;;;;;5072882;28;20511;-68
2022/01/23 12:39:08;;;;;;;2.40;2.20;;;7.10;99.90;;;;;;5072518;28;20049;-67
2022/01/23 12:41:40;;;;;;;2.70;2.10;;;7.20;99.90;;;;;;5079335;28;20059;-66
2022/01/23 12:44:15;;;;;;;5.80;2.80;;;7.20;99.90;;;;;;5092775;28;20435;-67
2022/01/23 12:46:47;;;;;;;2.95;1.88;;;7.20;99.90;;;;;;5075133;28;20048;-68
2022/01/23 12:49:22;;;;;;;2.30;2.10;;;7.20;99.90;;;;;;5094336;28;20063;-66
2022/01/23 12:51:51;;;;;;;1.55;1.42;;;7.20;99.90;;;;;;5092574;28;20058;-70
2022/01/23 12:54:23;;;;;;;1.73;1.33;;;7.20;99.90;;;;;;5079754;28;20056;-68
2022/01/23 12:56:51;;;;;;;2.30;1.50;;;7.20;99.90;;;;;;5072414;28;20044;-68
2022/01/23 12:59:24;;;;;;;2.58;1.60;;;7.20;99.90;;;;;;5072561;28;20131;-68
2022/01/23 13:01:56;;;;;;;3.28;2.05;;;7.30;99.90;;;;;;5073365;28;20052;-67
2022/01/23 13:04:22;;;;;;;1.88;1.25;;;7.20;99.90;;;;;;5106127;27;20055;-68
2022/01/23 13:06:52;;;;;;;1.63;1.48;;;7.20;99.90;;;;;;5076038;28;20052;-68
2022/01/23 13:27:16;;;;;;;18.98;13.07;;;7.10;99.90;;;;;;5053860;28;20048;-66
2022/01/23 13:29:56;;;;;;;10.73;7.25;;;7.10;99.90;;;;;;5080449;28;20055;-68
2022/01/23 13:34:59;;;;;;;2.85;2.53;;;7.10;99.90;;;;;;5108332;28;20384;-68
2022/01/23 13:37:28;;;;;;;4.90;3.08;;;7.10;99.90;;;;;;5124958;27;20090;-67
2022/01/23 13:40:00;;;;;;;4.43;3.13;;;7.10;99.90;;;;;;5091836;28;20236;-66
2022/01/23 13:42:49;;;;;;;2.60;2.00;;;7.10;99.90;;;;;;5093074;28;20450;-69
2022/01/23 13:59:29;;;;;;;4.07;3.42;;;7.00;99.90;;;;;;5073189;28;20056;-69
2022/01/23 14:04:29;;;;;;;2.20;2.00;;;7.00;99.90;;;;;;5091727;28;20388;-67
2022/01/23 14:06:55;;;;;;;2.55;2.10;;;7.00;99.90;;;;;;5091432;28;20480;-69
2022/01/23 14:09:22;;;;;;;2.30;2.10;;;7.10;99.90;;;;;;5091813;28;20056;-68
2022/01/23 14:11:48;;;;;;;3.00;1.90;;;7.10;99.90;;;;;;5095791;28;20070;-68
2022/01/23 14:14:18;;;;;;;5.40;4.38;;;7.10;99.90;;;;;;5096537;28;20052;-69
2022/01/23 14:16:46;;;;;;;1.95;1.75;;;7.10;99.90;;;;;;5096567;28;20044;-67
2022/01/23 14:19:27;;;;;;;1.35;1.25;;;7.10;99.90;;;;;;5095323;28;20515;-68
2022/01/23 14:21:56;;;;;;;2.85;1.60;;;7.10;99.90;;;;;;5095316;28;20052;-67
2022/01/23 14:24:33;;;;;;;1.35;1.25;;;7.10;99.90;;;;;;5078706;28;20060;-68
2022/01/23 14:27:09;;;;;;;1.60;1.50;;;7.00;99.90;;;;;;5095542;28;20055;-68
2022/01/23 14:29:48;;;;;;;3.70;2.40;;;7.10;99.90;;;;;;5074961;28;20049;-69
2022/01/23 14:32:24;;;;;;;2.20;1.90;;;7.00;99.90;;;;;;5075062;28;20048;-67
2022/01/23 14:34:51;;;;;;;2.30;1.35;;;7.00;99.90;;;;;;5058608;28;20053;-68
2022/01/23 14:37:26;;;;;;;4.38;2.65;;;7.00;99.90;;;;;;5078012;28;20121;-67
2022/01/23 14:40:07;;;;;;;2.47;1.80;;;7.00;99.90;;;;;;5078343;28;20062;-69
2022/01/23 14:42:33;;;;;;;2.00;1.70;;;7.00;99.90;;;;;;5080714;28;20044;-68
2022/01/23 14:45:02;;;;;;;2.42;1.20;;;7.00;99.90;;;;;;5078020;28;20071;-69
2022/01/23 14:47:37;;;;;;;1.30;1.20;;;6.90;99.90;;;;;;5096124;28;20051;-68
2022/01/23 14:50:11;;;;;;;3.17;2.28;;;6.90;99.90;;;;;;5091002;28;20060;-67
2022/01/23 14:52:40;;;;;;;2.67;1.67;;;6.90;99.90;;;;;;5094366;28;20048;-69
2022/01/23 14:55:07;;;;;;;2.85;1.55;;;6.90;99.90;;;;;;5096405;28;20381;-68
2022/01/23 14:57:34;;;;;;;1.98;1.23;;;6.90;99.90;;;;;;5094478;28;20039;-66
2022/01/23 15:00:00;;;;;;;2.25;1.67;;;6.90;99.90;;;;;;5088227;28;20056;-68
2022/01/23 15:02:26;;;;;;;1.95;1.50;;;6.80;99.90;;;;;;5100105;28;20059;-68
2022/01/23 15:04:52;;;;;;;3.17;2.58;;;6.80;99.90;;;;;;5077462;28;20056;-68
2022/01/23 15:07:18;;;;;;;2.78;1.80;;;6.80;99.90;;;;;;5094738;28;20059;-70
2022/01/23 15:09:48;;;;;;;5.22;2.22;;;6.70;99.90;;;;;;5095666;28;20097;-67
2022/01/23 15:12:15;;;;;;;3.13;2.45;;;6.70;99.90;;;;;;5094747;28;20097;-67
2022/01/23 15:14:41;;;;;;;2.75;2.17;;;6.70;99.90;;;;;;5089349;28;20049;-67
2022/01/23 15:17:07;;;;;;;5.10;2.83;;;6.70;99.90;;;;;;5075530;28;20057;-67
2022/01/23 15:19:34;;;;;;;5.78;3.65;;;6.70;99.90;;;;;;5088566;28;20056;-69
2022/01/23 15:22:00;;;;;;;8.95;5.38;;;6.70;99.90;;;;;;5094645;28;20487;-68
2022/01/23 15:24:26;;;;;;;8.25;4.18;;;6.70;99.90;;;;;;5093605;28;20079;-68
2022/01/23 15:26:52;;;;;;;8.00;4.55;;;6.70;99.90;;;;;;5094481;28;20044;-68
2022/01/23 15:29:18;;;;;;;7.22;4.20;;;6.70;99.90;;;;;;5077738;28;20101;-67
2022/01/23 15:31:43;;;;;;;11.45;6.13;;;6.70;99.90;;;;;;5092040;28;20105;-69
2022/01/23 15:34:09;;;;;;;6.95;3.63;;;;;;;;;;5077290;28;20569;-67
2022/01/23 15:36:36;;;;;;;4.70;3.00;;;6.60;99.90;;;;;;5094060;28;20070;-68
2022/01/23 15:39:05;;;;;;;4.00;2.30;;;6.60;99.90;;;;;;5075338;28;20518;-69
2022/01/23 15:41:31;;;;;;;3.63;1.65;;;6.60;99.90;;;;;;5092304;28;20395;-68
2022/01/23 15:43:56;;;;;;;3.60;1.60;;;6.60;99.90;;;;;;5090783;28;20408;-69
2022/01/23 15:46:22;;;;;;;1.90;1.70;;;6.50;99.90;;;;;;5084305;28;20048;-68
2022/01/23 15:48:48;;;;;;;2.70;1.60;;;6.50;99.90;;;;;;5108402;28;20441;-68
2022/01/23 15:51:14;;;;;;;1.95;1.60;;;6.50;99.90;;;;;;5092608;28;20055;-68
2022/01/23 15:53:39;;;;;;;3.05;1.70;;;6.50;99.90;;;;;;5093448;28;20048;-67
2022/01/23 15:56:05;;;;;;;3.10;1.80;;;6.50;99.90;;;;;;5093873;28;20059;-71
2022/01/23 15:58:31;;;;;;;4.10;2.13;;;6.50;99.90;;;;;;5084328;28;20060;-68
2022/01/23 16:00:57;;;;;;;6.68;1.90;;;6.50;99.90;;;;;;5073143;28;20499;-68
2022/01/23 16:03:24;;;;;;;4.20;1.95;;;6.40;99.90;;;;;;5073309;28;20056;-69
2022/01/23 16:05:50;;;;;;;2.75;2.38;;;6.40;99.90;;;;;;5094767;28;20048;-68
2022/01/23 16:08:16;;;;;;;4.68;2.13;;;6.40;99.90;;;;;;5093982;28;20151;-70
2022/01/23 16:10:43;;;;;;;3.95;2.58;;;6.40;99.90;;;;;;5093371;28;20063;-69
2022/01/23 16:13:08;;;;;;;2.70;2.50;;;6.40;99.90;;;;;;5094881;28;20135;-67
2022/01/23 16:15:34;;;;;;;3.92;2.88;;;6.40;99.90;;;;;;5076744;28;20075;-68
2022/01/23 16:18:02;;;;;;;5.47;3.03;;;6.30;99.90;;;;;;5092738;28;20056;-66
2022/01/23 16:20:28;;;;;;;3.75;2.72;;;6.30;99.90;;;;;;5093593;28;20069;-67